sensor_id;sensor_type;location;lat;lon;timestamp;P1;durP1;ratioP1;P2;durP2;ratioP2
15287;SDS011;7745;48.708;9.026;2023-03-12T00:02:10;9.80;;;4.93;;
15287;SDS011;7745;48.708;9.026;2023-03-12T00:04:37;8.30;;;4.60;;
15287;SDS011;7745;48.708;9.026;2023-03-12T00:07:03;10.60;;;5.17;;
15287;SDS011;7745;48.708;9.026;2023-03-12T00:09:33;8.83;;;5.27;;
15287;SDS011;7745;48.708;9.026;2023-03-12T00:12:00;10.60;;;4.80;;
15287;SDS011;7745;48.708;9.026;2023-03-12T00:14:29;9.03;;;4.20;;
15287;SDS011;7745;48.708;9.026;2023-03-12T00:16:56;11.47;;;4.50;;
15287;SDS011;7745;48.708;9.026;2023-03-12T00:19:23;6.97;;;4.63;;
15287;SDS011;7745;48.708;9.026;2023-03-12T00:21:49;8.33;;;4.63;;
15287;SDS011;7745;48.708;9.026;2023-03-12T00:24:16;8.37;;;4.23;;
15287;SDS011;7745;48.708;9.026;2023-03-12T00:26:43;10.83;;;5.50;;
15287;SDS011;7745;48.708;9.026;2023-03-12T00:29:10;9.07;;;4.67;;
15287;SDS011;7745;48.708;9.026;2023-03-12T00:31:38;10.43;;;4.80;;
15287;SDS011;7745;48.708;9.026;2023-03-12T00:34:05;11.53;;;5.10;;
15287;SDS011;7745;48.708;9.026;2023-03-12T00:36:32;7.57;;;4.90;;
15287;SDS011;7745;48.708;9.026;2023-03-12T00:38:59;8.83;;;4.70;;
15287;SDS011;7745;48.708;9.026;2023-03-12T00:41:27;9.30;;;4.67;;
15287;SDS011;7745;48.708;9.026;2023-03-12T00:43:54;11.10;;;4.43;;
15287;SDS011;7745;48.708;9.026;2023-03-12T00:46:22;6.97;;;4.60;;
15287;SDS011;7745;48.708;9.026;2023-03-12T00:48:50;9.47;;;4.50;;
15287;SDS011;7745;48.708;9.026;2023-03-12T00:51:16;7.20;;;4.43;;
15287;SDS011;7745;48.708;9.026;2023-03-12T00:53:43;9.97;;;4.80;;
15287;SDS011;7745;48.708;9.026;2023-03-12T00:56:10;8.43;;;4.30;;
15287;SDS011;7745;48.708;9.026;2023-03-12T00:58:37;6.03;;;4.07;;
15287;SDS011;7745;48.708;9.026;2023-03-12T01:01:06;9.33;;;4.73;;
15287;SDS011;7745;48.708;9.026;2023-03-12T01:03:34;7.17;;;5.10;;
15287;SDS011;7745;48.708;9.026;2023-03-12T01:06:02;14.77;;;5.90;;
15287;SDS011;7745;48.708;9.026;2023-03-12T01:08:29;9.03;;;5.00;;
15287;SDS011;7745;48.708;9.026;2023-03-12T01:10:56;8.03;;;5.13;;
15287;SDS011;7745;48.708;9.026;2023-03-12T01:13:23;9.03;;;5.60;;
15287;SDS011;7745;48.708;9.026;2023-03-12T01:15:50;10.53;;;5.87;;
15287;SDS011;7745;48.708;9.026;2023-03-12T01:18:16;8.67;;;5.23;;
15287;SDS011;7745;48.708;9.026;2023-03-12T01:20:43;8.03;;;5.67;;
15287;SDS011;7745;48.708;9.026;2023-03-12T01:23:12;8.53;;;4.97;;
15287;SDS011;7745;48.708;9.026;2023-03-12T01:25:40;9.83;;;5.90;;
15287;SDS011;7745;48.708;9.026;2023-03-12T01:28:07;11.60;;;6.07;;
15287;SDS011;7745;48.708;9.026;2023-03-12T01:30:34;10.23;;;6.20;;
15287;SDS011;7745;48.708;9.026;2023-03-12T01:33:00;9.00;;;5.60;;
15287;SDS011;7745;48.708;9.026;2023-03-12T01:35:27;9.53;;;5.60;;
15287;SDS011;7745;48.708;9.026;2023-03-12T01:37:54;10.83;;;6.13;;
15287;SDS011;7745;48.708;9.026;2023-03-12T01:40:23;11.07;;;5.47;;
15287;SDS011;7745;48.708;9.026;2023-03-12T01:42:53;13.03;;;6.70;;
15287;SDS011;7745;48.708;9.026;2023-03-12T01:48:28;10.07;;;5.77;;
15287;SDS011;7745;48.708;9.026;2023-03-12T01:50:58;10.27;;;5.87;;
15287;SDS011;7745;48.708;9.026;2023-03-12T01:53:27;7.50;;;5.23;;
15287;SDS011;7745;48.708;9.026;2023-03-12T01:55:55;8.47;;;5.33;;
15287;SDS011;7745;48.708;9.026;2023-03-12T01:58:23;8.37;;;5.37;;
15287;SDS011;7745;48.708;9.026;2023-03-12T02:00:51;7.73;;;5.00;;
15287;SDS011;7745;48.708;9.026;2023-03-12T02:03:18;11.70;;;5.33;;
15287;SDS011;7745;48.708;9.026;2023-03-12T02:05:46;9.67;;;5.40;;
15287;SDS011;7745;48.708;9.026;2023-03-12T02:08:16;8.37;;;5.07;;
15287;SDS011;7745;48.708;9.026;2023-03-12T02:10:44;8.23;;;5.23;;
15287;SDS011;7745;48.708;9.026;2023-03-12T02:13:12;6.53;;;4.83;;
15287;SDS011;7745;48.708;9.026;2023-03-12T02:15:39;8.67;;;5.10;;
15287;SDS011;7745;48.708;9.026;2023-03-12T02:18:07;9.27;;;5.33;;
15287;SDS011;7745;48.708;9.026;2023-03-12T02:20:38;7.47;;;5.07;;
15287;SDS011;7745;48.708;9.026;2023-03-12T02:23:11;11.07;;;5.40;;
15287;SDS011;7745;48.708;9.026;2023-03-12T02:25:44;9.90;;;5.03;;
15287;SDS011;7745;48.708;9.026;2023-03-12T02:28:14;8.23;;;4.93;;
15287;SDS011;7745;48.708;9.026;2023-03-12T02:30:43;10.87;;;4.90;;
15287;SDS011;7745;48.708;9.026;2023-03-12T02:33:13;8.13;;;4.83;;
15287;SDS011;7745;48.708;9.026;2023-03-12T02:35:40;8.87;;;4.97;;
15287;SDS011;7745;48.708;9.026;2023-03-12T02:41:00;8.23;;;5.27;;
15287;SDS011;7745;48.708;9.026;2023-03-12T02:43:30;10.13;;;4.83;;
15287;SDS011;7745;48.708;9.026;2023-03-12T02:45:58;8.57;;;5.10;;
15287;SDS011;7745;48.708;9.026;2023-03-12T02:48:24;9.00;;;4.90;;
15287;SDS011;7745;48.708;9.026;2023-03-12T02:50:51;7.70;;;5.20;;
15287;SDS011;7745;48.708;9.026;2023-03-12T02:53:19;7.10;;;4.43;;
15287;SDS011;7745;48.708;9.026;2023-03-12T02:55:46;8.83;;;5.17;;
15287;SDS011;7745;48.708;9.026;2023-03-12T02:58:14;6.40;;;4.70;;
15287;SDS011;7745;48.708;9.026;2023-03-12T03:00:40;9.57;;;5.37;;
15287;SDS011;7745;48.708;9.026;2023-03-12T03:03:07;6.47;;;4.60;;
15287;SDS011;7745;48.708;9.026;2023-03-12T03:05:34;8.13;;;4.63;;
15287;SDS011;7745;48.708;9.026;2023-03-12T03:08:02;8.77;;;5.13;;
15287;SDS011;7745;48.708;9.026;2023-03-12T03:10:29;10.43;;;5.30;;
15287;SDS011;7745;48.708;9.026;2023-03-12T03:12:56;9.57;;;4.97;;
15287;SDS011;7745;48.708;9.026;2023-03-12T03:15:24;8.63;;;5.10;;
15287;SDS011;7745;48.708;9.026;2023-03-12T03:17:51;8.80;;;4.30;;
15287;SDS011;7745;48.708;9.026;2023-03-12T03:20:18;7.07;;;4.77;;
15287;SDS011;7745;48.708;9.026;2023-03-12T03:22:46;5.90;;;4.50;;
15287;SDS011;7745;48.708;9.026;2023-03-12T03:25:13;9.40;;;4.90;;
15287;SDS011;7745;48.708;9.026;2023-03-12T03:27:40;6.67;;;4.37;;
15287;SDS011;7745;48.708;9.026;2023-03-12T03:30:07;6.63;;;4.43;;
15287;SDS011;7745;48.708;9.026;2023-03-12T03:32:38;7.13;;;4.43;;
15287;SDS011;7745;48.708;9.026;2023-03-12T03:35:05;9.63;;;5.33;;
15287;SDS011;7745;48.708;9.026;2023-03-12T03:37:32;7.57;;;4.43;;
15287;SDS011;7745;48.708;9.026;2023-03-12T03:39:59;6.43;;;4.63;;
15287;SDS011;7745;48.708;9.026;2023-03-12T03:42:26;8.37;;;4.47;;
15287;SDS011;7745;48.708;9.026;2023-03-12T03:44:53;7.17;;;4.73;;
15287;SDS011;7745;48.708;9.026;2023-03-12T03:47:20;6.93;;;4.30;;
15287;SDS011;7745;48.708;9.026;2023-03-12T03:49:48;8.33;;;5.07;;
15287;SDS011;7745;48.708;9.026;2023-03-12T03:52:15;7.70;;;4.23;;
15287;SDS011;7745;48.708;9.026;2023-03-12T03:54:42;8.97;;;4.90;;
15287;SDS011;7745;48.708;9.026;2023-03-12T03:57:08;7.40;;;4.70;;
15287;SDS011;7745;48.708;9.026;2023-03-12T03:59:35;12.00;;;5.63;;
15287;SDS011;7745;48.708;9.026;2023-03-12T04:02:02;7.53;;;4.93;;
15287;SDS011;7745;48.708;9.026;2023-03-12T04:04:29;7.87;;;4.60;;
15287;SDS011;7745;48.708;9.026;2023-03-12T04:06:57;9.20;;;4.50;;
15287;SDS011;7745;48.708;9.026;2023-03-12T04:09:24;10.47;;;4.60;;
15287;SDS011;7745;48.708;9.026;2023-03-12T04:11:51;6.37;;;4.03;;
15287;SDS011;7745;48.708;9.026;2023-03-12T04:14:17;7.50;;;4.03;;
15287;SDS011;7745;48.708;9.026;2023-03-12T04:16:44;6.30;;;4.10;;
15287;SDS011;7745;48.708;9.026;2023-03-12T04:19:11;7.20;;;4.17;;
15287;SDS011;7745;48.708;9.026;2023-03-12T04:21:38;4.33;;;3.63;;
15287;SDS011;7745;48.708;9.026;2023-03-12T04:24:06;7.90;;;4.10;;
15287;SDS011;7745;48.708;9.026;2023-03-12T04:26:37;7.13;;;3.73;;
15287;SDS011;7745;48.708;9.026;2023-03-12T04:29:04;5.23;;;4.20;;
15287;SDS011;7745;48.708;9.026;2023-03-12T04:31:31;5.87;;;3.63;;
15287;SDS011;7745;48.708;9.026;2023-03-12T04:33:58;6.63;;;4.23;;
15287;SDS011;7745;48.708;9.026;2023-03-12T04:36:25;6.90;;;3.53;;
15287;SDS011;7745;48.708;9.026;2023-03-12T04:38:52;7.83;;;3.93;;
15287;SDS011;7745;48.708;9.026;2023-03-12T04:41:20;6.80;;;3.50;;
15287;SDS011;7745;48.708;9.026;2023-03-12T04:43:47;5.47;;;4.10;;
15287;SDS011;7745;48.708;9.026;2023-03-12T04:46:14;6.63;;;4.23;;
15287;SDS011;7745;48.708;9.026;2023-03-12T04:48:41;6.00;;;4.20;;
15287;SDS011;7745;48.708;9.026;2023-03-12T04:51:08;8.30;;;4.40;;
15287;SDS011;7745;48.708;9.026;2023-03-12T04:53:34;6.53;;;4.13;;
15287;SDS011;7745;48.708;9.026;2023-03-12T04:56:01;8.40;;;4.10;;
15287;SDS011;7745;48.708;9.026;2023-03-12T04:58:30;6.70;;;4.07;;
15287;SDS011;7745;48.708;9.026;2023-03-12T05:00:57;7.73;;;4.50;;
15287;SDS011;7745;48.708;9.026;2023-03-12T05:03:24;7.30;;;4.27;;
15287;SDS011;7745;48.708;9.026;2023-03-12T05:05:51;10.90;;;4.13;;
15287;SDS011;7745;48.708;9.026;2023-03-12T05:08:18;5.90;;;3.80;;
15287;SDS011;7745;48.708;9.026;2023-03-12T05:10:45;6.97;;;4.30;;
15287;SDS011;7745;48.708;9.026;2023-03-12T05:13:13;6.63;;;4.10;;
15287;SDS011;7745;48.708;9.026;2023-03-12T05:16:19;7.57;;;4.13;;
15287;SDS011;7745;48.708;9.026;2023-03-12T05:18:45;8.43;;;3.80;;
15287;SDS011;7745;48.708;9.026;2023-03-12T05:21:13;7.03;;;4.53;;
15287;SDS011;7745;48.708;9.026;2023-03-12T05:23:41;6.03;;;4.40;;
15287;SDS011;7745;48.708;9.026;2023-03-12T05:26:14;6.43;;;4.20;;
15287;SDS011;7745;48.708;9.026;2023-03-12T05:28:42;6.40;;;4.03;;
15287;SDS011;7745;48.708;9.026;2023-03-12T05:31:10;6.27;;;3.63;;
15287;SDS011;7745;48.708;9.026;2023-03-12T05:33:40;7.10;;;3.50;;
15287;SDS011;7745;48.708;9.026;2023-03-12T05:36:08;7.20;;;4.17;;
15287;SDS011;7745;48.708;9.026;2023-03-12T05:38:36;7.10;;;4.40;;
15287;SDS011;7745;48.708;9.026;2023-03-12T05:41:04;7.03;;;4.50;;
15287;SDS011;7745;48.708;9.026;2023-03-12T05:43:31;5.77;;;4.40;;
15287;SDS011;7745;48.708;9.026;2023-03-12T05:45:58;5.90;;;4.67;;
15287;SDS011;7745;48.708;9.026;2023-03-12T05:48:29;6.23;;;4.30;;
15287;SDS011;7745;48.708;9.026;2023-03-12T05:50:56;4.83;;;3.93;;
15287;SDS011;7745;48.708;9.026;2023-03-12T05:53:24;8.83;;;4.37;;
15287;SDS011;7745;48.708;9.026;2023-03-12T05:55:50;8.20;;;4.20;;
15287;SDS011;7745;48.708;9.026;2023-03-12T05:58:17;7.03;;;4.10;;
15287;SDS011;7745;48.708;9.026;2023-03-12T06:00:44;11.47;;;4.80;;
15287;SDS011;7745;48.708;9.026;2023-03-12T06:03:11;5.80;;;4.20;;
15287;SDS011;7745;48.708;9.026;2023-03-12T06:05:39;7.70;;;5.27;;
15287;SDS011;7745;48.708;9.026;2023-03-12T06:08:06;6.50;;;4.50;;
15287;SDS011;7745;48.708;9.026;2023-03-12T06:10:33;5.87;;;4.57;;
15287;SDS011;7745;48.708;9.026;2023-03-12T06:13:02;7.03;;;5.10;;
15287;SDS011;7745;48.708;9.026;2023-03-12T06:15:29;5.97;;;4.53;;
15287;SDS011;7745;48.708;9.026;2023-03-12T06:17:55;7.80;;;4.93;;
15287;SDS011;7745;48.708;9.026;2023-03-12T06:20:22;6.73;;;4.67;;
15287;SDS011;7745;48.708;9.026;2023-03-12T06:22:50;6.50;;;4.47;;
15287;SDS011;7745;48.708;9.026;2023-03-12T06:25:17;8.03;;;4.73;;
15287;SDS011;7745;48.708;9.026;2023-03-12T06:27:44;8.43;;;4.93;;
15287;SDS011;7745;48.708;9.026;2023-03-12T06:30:11;6.37;;;4.67;;
15287;SDS011;7745;48.708;9.026;2023-03-12T06:32:39;6.77;;;4.93;;
15287;SDS011;7745;48.708;9.026;2023-03-12T06:35:06;6.43;;;4.40;;
15287;SDS011;7745;48.708;9.026;2023-03-12T06:37:33;8.67;;;4.80;;
15287;SDS011;7745;48.708;9.026;2023-03-12T06:40:02;6.17;;;4.43;;
15287;SDS011;7745;48.708;9.026;2023-03-12T06:42:33;9.00;;;4.63;;
15287;SDS011;7745;48.708;9.026;2023-03-12T06:45:00;9.50;;;5.17;;
15287;SDS011;7745;48.708;9.026;2023-03-12T06:47:27;8.00;;;4.97;;
15287;SDS011;7745;48.708;9.026;2023-03-12T06:49:54;7.43;;;4.80;;
15287;SDS011;7745;48.708;9.026;2023-03-12T06:52:21;7.27;;;5.20;;
15287;SDS011;7745;48.708;9.026;2023-03-12T06:54:48;7.30;;;5.43;;
15287;SDS011;7745;48.708;9.026;2023-03-12T06:57:16;7.30;;;5.20;;
15287;SDS011;7745;48.708;9.026;2023-03-12T06:59:51;9.67;;;5.60;;
15287;SDS011;7745;48.708;9.026;2023-03-12T07:02:18;9.07;;;4.77;;
15287;SDS011;7745;48.708;9.026;2023-03-12T07:04:45;6.67;;;5.10;;
15287;SDS011;7745;48.708;9.026;2023-03-12T07:07:12;8.43;;;4.67;;
15287;SDS011;7745;48.708;9.026;2023-03-12T07:09:41;7.27;;;4.90;;
15287;SDS011;7745;48.708;9.026;2023-03-12T07:12:08;7.17;;;4.40;;
15287;SDS011;7745;48.708;9.026;2023-03-12T07:14:36;5.87;;;4.37;;
15287;SDS011;7745;48.708;9.026;2023-03-12T07:17:03;6.27;;;4.50;;
15287;SDS011;7745;48.708;9.026;2023-03-12T07:19:30;7.20;;;4.93;;
15287;SDS011;7745;48.708;9.026;2023-03-12T07:21:56;7.37;;;4.80;;
15287;SDS011;7745;48.708;9.026;2023-03-12T07:24:23;8.67;;;4.67;;
15287;SDS011;7745;48.708;9.026;2023-03-12T07:26:50;8.97;;;4.77;;
15287;SDS011;7745;48.708;9.026;2023-03-12T07:29:17;7.50;;;4.87;;
15287;SDS011;7745;48.708;9.026;2023-03-12T07:31:45;7.23;;;4.90;;
15287;SDS011;7745;48.708;9.026;2023-03-12T07:34:12;5.57;;;4.80;;
15287;SDS011;7745;48.708;9.026;2023-03-12T07:36:39;7.37;;;4.70;;
15287;SDS011;7745;48.708;9.026;2023-03-12T07:39:06;8.27;;;5.00;;
15287;SDS011;7745;48.708;9.026;2023-03-12T07:41:33;6.17;;;4.63;;
15287;SDS011;7745;48.708;9.026;2023-03-12T07:44:01;5.47;;;4.50;;
15287;SDS011;7745;48.708;9.026;2023-03-12T07:46:28;8.70;;;4.67;;
15287;SDS011;7745;48.708;9.026;2023-03-12T07:48:56;6.40;;;4.63;;
15287;SDS011;7745;48.708;9.026;2023-03-12T07:51:23;6.97;;;4.93;;
15287;SDS011;7745;48.708;9.026;2023-03-12T07:53:49;7.17;;;5.50;;
15287;SDS011;7745;48.708;9.026;2023-03-12T07:56:16;10.30;;;5.53;;
15287;SDS011;7745;48.708;9.026;2023-03-12T07:58:43;6.77;;;5.53;;
15287;SDS011;7745;48.708;9.026;2023-03-12T08:01:10;6.20;;;4.80;;
15287;SDS011;7745;48.708;9.026;2023-03-12T08:03:37;8.70;;;6.33;;
15287;SDS011;7745;48.708;9.026;2023-03-12T08:06:05;7.27;;;5.90;;
15287;SDS011;7745;48.708;9.026;2023-03-12T08:08:32;8.03;;;6.13;;
15287;SDS011;7745;48.708;9.026;2023-03-12T08:11:00;10.23;;;6.30;;
15287;SDS011;7745;48.708;9.026;2023-03-12T08:13:29;7.50;;;6.03;;
15287;SDS011;7745;48.708;9.026;2023-03-12T08:15:56;8.73;;;6.00;;
15287;SDS011;7745;48.708;9.026;2023-03-12T08:18:23;8.00;;;6.33;;
15287;SDS011;7745;48.708;9.026;2023-03-12T08:20:50;8.47;;;6.20;;
15287;SDS011;7745;48.708;9.026;2023-03-12T08:23:20;8.47;;;6.57;;
15287;SDS011;7745;48.708;9.026;2023-03-12T08:25:47;7.67;;;6.53;;
15287;SDS011;7745;48.708;9.026;2023-03-12T08:28:15;9.40;;;6.77;;
15287;SDS011;7745;48.708;9.026;2023-03-12T08:30:46;10.50;;;7.40;;
15287;SDS011;7745;48.708;9.026;2023-03-12T08:33:14;11.37;;;6.87;;
15287;SDS011;7745;48.708;9.026;2023-03-12T08:35:41;9.97;;;6.90;;
15287;SDS011;7745;48.708;9.026;2023-03-12T08:38:07;9.73;;;6.87;;
15287;SDS011;7745;48.708;9.026;2023-03-12T08:40:36;9.87;;;6.57;;
15287;SDS011;7745;48.708;9.026;2023-03-12T08:43:03;11.37;;;7.30;;
15287;SDS011;7745;48.708;9.026;2023-03-12T08:45:31;9.33;;;7.27;;
15287;SDS011;7745;48.708;9.026;2023-03-12T08:48:00;11.37;;;7.40;;
15287;SDS011;7745;48.708;9.026;2023-03-12T08:50:27;13.00;;;7.90;;
15287;SDS011;7745;48.708;9.026;2023-03-12T08:52:56;9.77;;;7.63;;
15287;SDS011;7745;48.708;9.026;2023-03-12T08:55:23;10.13;;;7.30;;
15287;SDS011;7745;48.708;9.026;2023-03-12T08:57:51;10.30;;;7.07;;
15287;SDS011;7745;48.708;9.026;2023-03-12T09:00:18;9.33;;;7.57;;
15287;SDS011;7745;48.708;9.026;2023-03-12T09:02:45;10.03;;;7.53;;
15287;SDS011;7745;48.708;9.026;2023-03-12T09:05:14;9.73;;;7.50;;
15287;SDS011;7745;48.708;9.026;2023-03-12T09:07:41;10.13;;;7.43;;
15287;SDS011;7745;48.708;9.026;2023-03-12T09:10:08;11.00;;;7.80;;
15287;SDS011;7745;48.708;9.026;2023-03-12T09:12:35;12.27;;;7.80;;
15287;SDS011;7745;48.708;9.026;2023-03-12T09:15:04;11.43;;;7.93;;
15287;SDS011;7745;48.708;9.026;2023-03-12T09:17:31;9.40;;;7.47;;
15287;SDS011;7745;48.708;9.026;2023-03-12T09:19:58;9.40;;;7.40;;
15287;SDS011;7745;48.708;9.026;2023-03-12T09:22:25;10.80;;;7.50;;
15287;SDS011;7745;48.708;9.026;2023-03-12T09:24:54;10.57;;;7.53;;
15287;SDS011;7745;48.708;9.026;2023-03-12T09:27:20;10.10;;;8.07;;
15287;SDS011;7745;48.708;9.026;2023-03-12T09:29:48;9.00;;;7.97;;
15287;SDS011;7745;48.708;9.026;2023-03-12T09:32:17;12.23;;;8.00;;
15287;SDS011;7745;48.708;9.026;2023-03-12T09:34:43;8.80;;;7.40;;
15287;SDS011;7745;48.708;9.026;2023-03-12T09:37:10;11.17;;;7.90;;
15287;SDS011;7745;48.708;9.026;2023-03-12T09:39:37;9.63;;;7.37;;
15287;SDS011;7745;48.708;9.026;2023-03-12T09:42:04;8.77;;;7.73;;
15287;SDS011;7745;48.708;9.026;2023-03-12T09:44:38;9.37;;;7.50;;
15287;SDS011;7745;48.708;9.026;2023-03-12T09:47:08;11.60;;;7.70;;
15287;SDS011;7745;48.708;9.026;2023-03-12T09:49:43;9.87;;;8.07;;
15287;SDS011;7745;48.708;9.026;2023-03-12T09:52:16;10.40;;;7.30;;
15287;SDS011;7745;48.708;9.026;2023-03-12T09:54:46;7.30;;;6.27;;
15287;SDS011;7745;48.708;9.026;2023-03-12T09:57:20;12.27;;;7.20;;
15287;SDS011;7745;48.708;9.026;2023-03-12T09:59:50;11.37;;;7.70;;
15287;SDS011;7745;48.708;9.026;2023-03-12T10:02:26;8.80;;;7.50;;
15287;SDS011;7745;48.708;9.026;2023-03-12T10:05:10;8.83;;;6.53;;
15287;SDS011;7745;48.708;9.026;2023-03-12T10:07:44;12.90;;;7.60;;
15287;SDS011;7745;48.708;9.026;2023-03-12T10:10:22;12.20;;;7.10;;
15287;SDS011;7745;48.708;9.026;2023-03-12T10:13:01;11.03;;;7.60;;
15287;SDS011;7745;48.708;9.026;2023-03-12T10:15:42;11.33;;;7.03;;
15287;SDS011;7745;48.708;9.026;2023-03-12T10:18:19;10.03;;;6.60;;
15287;SDS011;7745;48.708;9.026;2023-03-12T10:21:03;9.67;;;6.83;;
15287;SDS011;7745;48.708;9.026;2023-03-12T10:23:45;8.50;;;5.77;;
15287;SDS011;7745;48.708;9.026;2023-03-12T10:26:23;9.53;;;6.87;;
15287;SDS011;7745;48.708;9.026;2023-03-12T10:28:55;8.10;;;5.90;;
15287;SDS011;7745;48.708;9.026;2023-03-12T10:31:26;11.17;;;5.70;;
15287;SDS011;7745;48.708;9.026;2023-03-12T10:33:58;10.37;;;5.47;;
15287;SDS011;7745;48.708;9.026;2023-03-12T10:36:27;5.50;;;4.37;;
15287;SDS011;7745;48.708;9.026;2023-03-12T10:38:59;10.33;;;4.73;;
15287;SDS011;7745;48.708;9.026;2023-03-12T10:41:27;5.77;;;3.53;;
15287;SDS011;7745;48.708;9.026;2023-03-12T10:43:56;3.73;;;3.00;;
15287;SDS011;7745;48.708;9.026;2023-03-12T10:46:32;6.17;;;3.43;;
15287;SDS011;7745;48.708;9.026;2023-03-12T10:52:03;6.30;;;3.50;;
15287;SDS011;7745;48.708;9.026;2023-03-12T10:54:33;4.33;;;2.97;;
15287;SDS011;7745;48.708;9.026;2023-03-12T10:57:01;2.73;;;2.30;;
15287;SDS011;7745;48.708;9.026;2023-03-12T10:59:30;3.40;;;2.13;;
15287;SDS011;7745;48.708;9.026;2023-03-12T11:01:59;2.60;;;1.90;;
15287;SDS011;7745;48.708;9.026;2023-03-12T11:04:27;2.50;;;1.17;;
15287;SDS011;7745;48.708;9.026;2023-03-12T11:07:05;3.10;;;1.40;;
15287;SDS011;7745;48.708;9.026;2023-03-12T11:09:43;3.23;;;0.97;;
15287;SDS011;7745;48.708;9.026;2023-03-12T11:12:22;1.93;;;1.10;;
15287;SDS011;7745;48.708;9.026;2023-03-12T11:14:51;1.70;;;0.93;;
15287;SDS011;7745;48.708;9.026;2023-03-12T11:17:18;3.30;;;0.70;;
15287;SDS011;7745;48.708;9.026;2023-03-12T11:19:47;2.27;;;1.00;;
15287;SDS011;7745;48.708;9.026;2023-03-12T11:22:16;1.10;;;0.80;;
15287;SDS011;7745;48.708;9.026;2023-03-12T11:24:54;2.57;;;1.00;;
15287;SDS011;7745;48.708;9.026;2023-03-12T11:27:25;2.53;;;0.80;;
15287;SDS011;7745;48.708;9.026;2023-03-12T11:29:57;2.63;;;1.10;;
15287;SDS011;7745;48.708;9.026;2023-03-12T11:32:26;1.30;;;1.07;;
15287;SDS011;7745;48.708;9.026;2023-03-12T11:34:58;4.40;;;1.10;;
15287;SDS011;7745;48.708;9.026;2023-03-12T11:37:29;2.10;;;1.20;;
15287;SDS011;7745;48.708;9.026;2023-03-12T11:40:10;2.93;;;1.10;;
15287;SDS011;7745;48.708;9.026;2023-03-12T11:42:46;3.03;;;1.07;;
15287;SDS011;7745;48.708;9.026;2023-03-12T11:45:22;1.80;;;0.87;;
15287;SDS011;7745;48.708;9.026;2023-03-12T11:48:05;4.57;;;1.10;;
15287;SDS011;7745;48.708;9.026;2023-03-12T11:50:43;2.10;;;0.90;;
15287;SDS011;7745;48.708;9.026;2023-03-12T11:56:10;4.60;;;1.20;;
15287;SDS011;7745;48.708;9.026;2023-03-12T11:58:55;4.10;;;1.30;;
15287;SDS011;7745;48.708;9.026;2023-03-12T12:01:47;2.83;;;1.23;;
15287;SDS011;7745;48.708;9.026;2023-03-12T12:07:16;2.37;;;1.10;;
15287;SDS011;7745;48.708;9.026;2023-03-12T12:09:52;4.43;;;1.27;;
15287;SDS011;7745;48.708;9.026;2023-03-12T12:12:33;7.37;;;1.30;;
15287;SDS011;7745;48.708;9.026;2023-03-12T12:15:09;3.17;;;1.17;;
15287;SDS011;7745;48.708;9.026;2023-03-12T12:17:46;5.60;;;1.47;;
15287;SDS011;7745;48.708;9.026;2023-03-12T12:20:25;4.53;;;1.70;;
15287;SDS011;7745;48.708;9.026;2023-03-12T12:23:07;5.27;;;1.73;;
15287;SDS011;7745;48.708;9.026;2023-03-12T12:25:48;5.80;;;1.60;;
15287;SDS011;7745;48.708;9.026;2023-03-12T12:31:29;5.80;;;1.57;;
15287;SDS011;7745;48.708;9.026;2023-03-12T12:34:11;7.07;;;1.70;;
15287;SDS011;7745;48.708;9.026;2023-03-12T12:36:49;4.60;;;1.37;;
15287;SDS011;7745;48.708;9.026;2023-03-12T12:39:22;5.60;;;1.50;;
15287;SDS011;7745;48.708;9.026;2023-03-12T12:42:01;6.23;;;1.60;;
15287;SDS011;7745;48.708;9.026;2023-03-12T12:44:31;3.73;;;1.53;;
15287;SDS011;7745;48.708;9.026;2023-03-12T12:47:02;5.57;;;2.10;;
15287;SDS011;7745;48.708;9.026;2023-03-12T12:49:35;6.17;;;2.13;;
15287;SDS011;7745;48.708;9.026;2023-03-12T12:52:07;6.07;;;1.97;;
15287;SDS011;7745;48.708;9.026;2023-03-12T12:54:37;4.57;;;1.60;;
15287;SDS011;7745;48.708;9.026;2023-03-12T12:57:15;3.77;;;1.40;;
15287;SDS011;7745;48.708;9.026;2023-03-12T12:59:50;5.87;;;2.30;;
15287;SDS011;7745;48.708;9.026;2023-03-12T13:02:35;7.53;;;2.07;;
15287;SDS011;7745;48.708;9.026;2023-03-12T13:05:12;4.57;;;1.50;;
15287;SDS011;7745;48.708;9.026;2023-03-12T13:07:44;2.57;;;1.47;;
15287;SDS011;7745;48.708;9.026;2023-03-12T13:13:10;3.30;;;1.30;;
15287;SDS011;7745;48.708;9.026;2023-03-12T13:15:43;4.20;;;1.40;;
15287;SDS011;7745;48.708;9.026;2023-03-12T13:18:20;2.43;;;1.10;;
15287;SDS011;7745;48.708;9.026;2023-03-12T13:23:42;4.33;;;2.20;;
15287;SDS011;7745;48.708;9.026;2023-03-12T13:26:17;5.37;;;1.53;;
15287;SDS011;7745;48.708;9.026;2023-03-12T13:28:57;3.27;;;1.50;;
15287;SDS011;7745;48.708;9.026;2023-03-12T13:31:36;3.07;;;1.23;;
15287;SDS011;7745;48.708;9.026;2023-03-12T13:34:27;7.70;;;1.60;;
15287;SDS011;7745;48.708;9.026;2023-03-12T13:37:16;3.80;;;1.37;;
15287;SDS011;7745;48.708;9.026;2023-03-12T13:39:46;5.50;;;1.60;;
15287;SDS011;7745;48.708;9.026;2023-03-12T13:42:31;3.37;;;1.13;;
15287;SDS011;7745;48.708;9.026;2023-03-12T13:45:21;2.87;;;1.57;;
15287;SDS011;7745;48.708;9.026;2023-03-12T13:47:49;4.83;;;1.73;;
15287;SDS011;7745;48.708;9.026;2023-03-12T13:50:24;2.10;;;1.30;;
15287;SDS011;7745;48.708;9.026;2023-03-12T13:52:56;4.53;;;1.33;;
15287;SDS011;7745;48.708;9.026;2023-03-12T13:55:28;5.03;;;1.67;;
15287;SDS011;7745;48.708;9.026;2023-03-12T13:57:58;1.87;;;1.00;;
15287;SDS011;7745;48.708;9.026;2023-03-12T14:00:35;4.17;;;1.77;;
15287;SDS011;7745;48.708;9.026;2023-03-12T14:03:08;2.60;;;1.20;;
15287;SDS011;7745;48.708;9.026;2023-03-12T14:05:45;4.83;;;1.23;;
15287;SDS011;7745;48.708;9.026;2023-03-12T14:08:29;4.23;;;1.63;;
15287;SDS011;7745;48.708;9.026;2023-03-12T14:11:15;6.20;;;2.40;;
15287;SDS011;7745;48.708;9.026;2023-03-12T14:14:04;4.20;;;1.50;;
15287;SDS011;7745;48.708;9.026;2023-03-12T14:16:56;2.93;;;1.30;;
15287;SDS011;7745;48.708;9.026;2023-03-12T14:19:26;3.40;;;1.43;;
15287;SDS011;7745;48.708;9.026;2023-03-12T14:21:58;3.80;;;1.40;;
15287;SDS011;7745;48.708;9.026;2023-03-12T14:24:28;4.40;;;1.90;;
15287;SDS011;7745;48.708;9.026;2023-03-12T14:26:59;4.23;;;1.60;;
15287;SDS011;7745;48.708;9.026;2023-03-12T14:29:27;5.63;;;2.00;;
15287;SDS011;7745;48.708;9.026;2023-03-12T14:31:57;4.03;;;1.30;;
15287;SDS011;7745;48.708;9.026;2023-03-12T14:34:29;3.43;;;1.63;;
15287;SDS011;7745;48.708;9.026;2023-03-12T14:37:03;3.43;;;1.50;;
15287;SDS011;7745;48.708;9.026;2023-03-12T14:39:41;3.07;;;1.60;;
15287;SDS011;7745;48.708;9.026;2023-03-12T14:42:16;4.47;;;1.47;;
15287;SDS011;7745;48.708;9.026;2023-03-12T14:44:53;1.97;;;0.80;;
15287;SDS011;7745;48.708;9.026;2023-03-12T14:47:22;3.50;;;1.13;;
15287;SDS011;7745;48.708;9.026;2023-03-12T14:49:49;4.73;;;1.10;;
15287;SDS011;7745;48.708;9.026;2023-03-12T14:52:21;4.70;;;1.93;;
15287;SDS011;7745;48.708;9.026;2023-03-12T14:54:52;4.53;;;1.33;;
15287;SDS011;7745;48.708;9.026;2023-03-12T14:57:21;4.37;;;1.30;;
15287;SDS011;7745;48.708;9.026;2023-03-12T14:59:50;3.67;;;1.50;;
15287;SDS011;7745;48.708;9.026;2023-03-12T15:02:18;6.20;;;1.87;;
15287;SDS011;7745;48.708;9.026;2023-03-12T15:04:46;5.13;;;1.63;;
15287;SDS011;7745;48.708;9.026;2023-03-12T15:07:14;6.43;;;1.87;;
15287;SDS011;7745;48.708;9.026;2023-03-12T15:09:48;6.77;;;1.90;;
15287;SDS011;7745;48.708;9.026;2023-03-12T15:12:17;4.93;;;1.67;;
15287;SDS011;7745;48.708;9.026;2023-03-12T15:14:46;6.27;;;1.80;;
15287;SDS011;7745;48.708;9.026;2023-03-12T15:17:15;7.10;;;2.20;;
15287;SDS011;7745;48.708;9.026;2023-03-12T15:19:44;6.63;;;2.07;;
15287;SDS011;7745;48.708;9.026;2023-03-12T15:22:12;8.40;;;2.83;;
15287;SDS011;7745;48.708;9.026;2023-03-12T15:24:42;4.57;;;1.53;;
15287;SDS011;7745;48.708;9.026;2023-03-12T15:27:21;8.37;;;2.13;;
15287;SDS011;7745;48.708;9.026;2023-03-12T15:29:57;7.27;;;1.80;;
15287;SDS011;7745;48.708;9.026;2023-03-12T15:32:26;5.40;;;1.53;;
15287;SDS011;7745;48.708;9.026;2023-03-12T15:34:55;7.83;;;2.03;;
15287;SDS011;7745;48.708;9.026;2023-03-12T15:37:23;8.83;;;2.20;;
15287;SDS011;7745;48.708;9.026;2023-03-12T15:39:56;6.33;;;2.07;;
15287;SDS011;7745;48.708;9.026;2023-03-12T15:42:26;6.10;;;1.83;;